Time;durP1;ratioP1;P1;durP2;ratioP2;P2;SDS_P1;SDS_P2;PMS_P1;PMS_P2;Temp;Humidity;BMP_temperature;BMP_pressure;BME280_temperature;BME280_humidity;BME280_pressure;Samples;Min_cycle;Max_cycle;Signal;HPM_P1;HPM_P2
2020/12/23 00:00:32;;;;;;;0.00;0.00;;;;;;;;;;5059403;28;20267;-74
2020/12/23 00:02:57;;;;;;;0.00;0.00;;;;;;;;;;5055166;28;20268;-74
2020/12/23 00:05:22;;;;;;;0.00;0.00;;;;;;;;;;5031339;28;20447;-74
2020/12/23 00:07:48;;;;;;;0.00;0.00;;;;;;;;;;4998524;28;20112;-74
2020/12/23 00:10:13;;;;;;;0.00;0.00;;;;;;;;;;5000481;28;20848;-74
2020/12/23 00:12:38;;;;;;;0.00;0.00;;;;;;;;;;5001235;28;20257;-75
2020/12/23 00:15:04;;;;;;;0.00;0.00;;;;;;;;;;4983440;28;20501;-74
2020/12/23 00:17:29;;;;;;;0.00;0.00;;;;;;;;;;5019081;28;20025;-74
2020/12/23 00:19:54;;;;;;;0.00;0.00;;;;;;;;;;5019907;28;20111;-75
2020/12/23 00:22:20;;;;;;;0.00;0.00;;;;;;;;;;5019160;28;20060;-75
2020/12/23 00:24:45;;;;;;;0.10;0.10;;;;;;;;;;5003940;28;20315;-74
2020/12/23 00:27:10;;;;;;;0.07;0.07;;;;;;;;;;4988236;28;20121;-75
2020/12/23 00:29:36;;;;;;;0.00;0.00;;;;;;;;;;5021841;28;20265;-74
2020/12/23 00:32:01;;;;;;;0.10;0.10;;;;;;;;;;5020332;28;20041;-75
2020/12/23 00:34:26;;;;;;;0.00;0.00;;;;;;;;;;5020981;28;20116;-74
2020/12/23 00:36:53;;;;;;;0.10;0.10;;;;;;;;;;5011438;28;20029;-74
2020/12/23 00:39:18;;;;;;;0.00;0.00;;;;;;;;;;5003036;28;20432;-74
2020/12/23 00:41:44;;;;;;;0.00;0.00;;;;;;;;;;5020330;28;20109;-75
2020/12/23 00:44:09;;;;;;;0.10;0.10;;;;;;;;;;5037332;28;20056;-74
2020/12/23 00:46:34;;;;;;;0.10;0.10;;;;;;;;;;5020868;28;20100;-75
2020/12/23 00:48:59;;;;;;;0.00;0.00;;;;;;;;;;5004767;28;20033;-75
2020/12/23 00:51:25;;;;;;;0.10;0.10;;;;;;;;;;5007726;28;20769;-75
2020/12/23 00:53:50;;;;;;;0.10;0.10;;;;;;;;;;5006704;28;20029;-75
2020/12/23 00:56:16;;;;;;;0.08;0.08;;;;;;;;;;5034432;28;20265;-75
2020/12/23 00:58:41;;;;;;;0.10;0.10;;;;;;;;;;5017070;28;20041;-74
2020/12/23 01:01:06;;;;;;;0.00;0.00;;;;;;;;;;4993685;28;20386;-74
2020/12/23 01:03:32;;;;;;;0.07;0.07;;;;;;;;;;5002584;28;20307;-74
2020/12/23 01:05:57;;;;;;;0.00;0.00;;;;;;;;;;5039353;28;20272;-74
2020/12/23 01:08:22;;;;;;;0.10;0.10;;;;;;;;;;5023761;28;20034;-74
2020/12/23 01:10:48;;;;;;;0.05;0.05;;;;;;;;;;5027845;28;20060;-74
2020/12/23 01:13:14;;;;;;;0.10;0.10;;;;;;;;;;5030286;28;20117;-74
2020/12/23 01:15:39;;;;;;;0.00;0.00;;;;;;;;;;5020988;28;20558;-75
2020/12/23 01:18:04;;;;;;;0.10;0.10;;;;;;;;;;5008572;28;20042;-75
2020/12/23 01:20:30;;;;;;;0.03;0.03;;;;;;;;;;5014826;28;20089;-75
2020/12/23 01:22:55;;;;;;;0.10;0.10;;;;;;;;;;5021649;28;20049;-74
2020/12/23 01:25:21;;;;;;;0.08;0.08;;;;;;;;;;5015704;28;20030;-74
2020/12/23 01:27:46;;;;;;;0.00;0.00;;;;;;;;;;5011401;28;20030;-75
2020/12/23 01:30:13;;;;;;;0.00;0.00;;;;;;;;;;4997250;28;20108;-75
2020/12/23 01:32:38;;;;;;;0.08;0.08;;;;;;;;;;4987257;28;20031;-75
2020/12/23 01:35:03;;;;;;;0.10;0.10;;;;;;;;;;5002022;28;20030;-74
2020/12/23 01:37:28;;;;;;;0.00;0.00;;;;;;;;;;5018979;28;20280;-75
2020/12/23 01:39:53;;;;;;;0.10;0.10;;;;;;;;;;4998281;28;20030;-75
2020/12/23 01:42:18;;;;;;;0.00;0.00;;;;;;;;;;4982706;28;20594;-75
2020/12/23 01:44:44;;;;;;;0.10;0.10;;;;;;;;;;5017207;28;20272;-75
2020/12/23 01:47:21;;;;;;;0.00;0.00;;;;;;;;;;4999492;28;20026;-75
2020/12/23 01:49:47;;;;;;;0.00;0.00;;;;;;;;;;4999562;28;20271;-75
2020/12/23 01:52:13;;;;;;;0.00;0.00;;;;;;;;;;5015774;28;20029;-75
2020/12/23 01:54:38;;;;;;;0.10;0.10;;;;;;;;;;4998606;28;20359;-75
2020/12/23 01:57:03;;;;;;;0.00;0.00;;;;;;;;;;5000532;28;20067;-75
2020/12/23 01:59:29;;;;;;;0.10;0.10;;;;;;;;;;5014882;28;20275;-75
2020/12/23 02:02:02;;;;;;;0.10;0.10;;;;;;;;;;5015879;28;20370;-75
2020/12/23 02:04:32;;;;;;;0.00;0.00;;;;;;;;;;5013466;28;20511;-74
2020/12/23 02:06:57;;;;;;;0.10;0.10;;;;;;;;;;5056238;28;20393;-74
2020/12/23 02:09:22;;;;;;;0.00;0.00;;;;;;;;;;5043892;28;20035;-75
2020/12/23 02:11:48;;;;;;;0.00;0.00;;;;;;;;;;5034411;28;20255;-75
2020/12/23 02:14:13;;;;;;;0.00;0.00;;;;;;;;;;5028636;28;20481;-74
2020/12/23 02:16:38;;;;;;;0.00;0.00;;;;;;;;;;5035519;28;20375;-75
2020/12/23 02:19:03;;;;;;;0.00;0.00;;;;;;;;;;5032209;28;20033;-75
2020/12/23 02:21:28;;;;;;;0.10;0.10;;;;;;;;;;5035454;28;20264;-75
2020/12/23 02:23:54;;;;;;;0.00;0.00;;;;;;;;;;5052053;28;20743;-75
2020/12/23 02:26:19;;;;;;;0.00;0.00;;;;;;;;;;5036229;28;20319;-75
2020/12/23 02:28:44;;;;;;;0.00;0.00;;;;;;;;;;5053019;28;21089;-75
2020/12/23 02:31:09;;;;;;;0.00;0.00;;;;;;;;;;5033881;28;20124;-75
2020/12/23 02:33:34;;;;;;;0.05;0.05;;;;;;;;;;5033095;28;20068;-74
2020/12/23 02:36:00;;;;;;;0.00;0.00;;;;;;;;;;5032276;28;20038;-74
2020/12/23 02:38:25;;;;;;;0.10;0.10;;;;;;;;;;5031728;28;20287;-75
2020/12/23 02:40:51;;;;;;;0.10;0.10;;;;;;;;;;5049985;28;20818;-74
2020/12/23 02:43:16;;;;;;;0.00;0.00;;;;;;;;;;5058062;28;20032;-75
2020/12/23 02:45:41;;;;;;;0.00;0.00;;;;;;;;;;5054383;28;20075;-75
2020/12/23 02:48:06;;;;;;;0.00;0.00;;;;;;;;;;5031678;28;20036;-75
2020/12/23 02:50:31;;;;;;;0.00;0.00;;;;;;;;;;5015925;28;20064;-75
2020/12/23 02:52:57;;;;;;;0.10;0.10;;;;;;;;;;5032671;28;20271;-74
2020/12/23 02:55:23;;;;;;;0.00;0.00;;;;;;;;;;5032190;28;20055;-74
2020/12/23 02:57:48;;;;;;;0.00;0.00;;;;;;;;;;5034219;28;20095;-74
2020/12/23 03:00:13;;;;;;;0.10;0.10;;;;;;;;;;5031972;28;20022;-75
2020/12/23 03:02:39;;;;;;;0.10;0.10;;;;;;;;;;5017671;28;20278;-74
2020/12/23 03:05:04;;;;;;;0.10;0.10;;;;;;;;;;5021726;28;20631;-75
2020/12/23 03:07:29;;;;;;;0.10;0.10;;;;;;;;;;4979267;28;20037;-74
2020/12/23 03:09:57;;;;;;;0.03;0.03;;;;;;;;;;4997987;28;20260;-74
2020/12/23 03:12:22;;;;;;;0.10;0.10;;;;;;;;;;5005172;28;20033;-75
2020/12/23 03:14:47;;;;;;;0.10;0.10;;;;;;;;;;4996544;28;20044;-73
2020/12/23 03:17:13;;;;;;;0.10;0.10;;;;;;;;;;5006084;28;20041;-74
2020/12/23 03:19:38;;;;;;;0.00;0.00;;;;;;;;;;5001639;28;20026;-73
2020/12/23 03:22:03;;;;;;;0.07;0.07;;;;;;;;;;4998437;28;20022;-74
2020/12/23 03:24:28;;;;;;;0.05;0.05;;;;;;;;;;4995165;28;20261;-74
2020/12/23 03:26:53;;;;;;;0.00;0.00;;;;;;;;;;4997026;28;20042;-73
2020/12/23 03:29:19;;;;;;;0.10;0.10;;;;;;;;;;5014175;28;20276;-73
2020/12/23 03:31:44;;;;;;;0.10;0.10;;;;;;;;;;4998204;28;20268;-74
2020/12/23 03:34:09;;;;;;;0.00;0.00;;;;;;;;;;4996273;28;20376;-73
2020/12/23 03:36:34;;;;;;;0.00;0.00;;;;;;;;;;4995214;28;20054;-73
2020/12/23 03:38:59;;;;;;;0.00;0.00;;;;;;;;;;4978721;28;20773;-74
2020/12/23 03:41:25;;;;;;;0.00;0.00;;;;;;;;;;4996777;28;20271;-73
2020/12/23 03:43:51;;;;;;;0.00;0.00;;;;;;;;;;5000488;28;20104;-74
2020/12/23 03:46:16;;;;;;;0.10;0.10;;;;;;;;;;4995522;28;20497;-73
2020/12/23 03:48:41;;;;;;;0.00;0.00;;;;;;;;;;4996037;28;20030;-73
2020/12/23 03:51:07;;;;;;;0.00;0.00;;;;;;;;;;4998935;28;20030;-73
2020/12/23 03:53:32;;;;;;;0.10;0.10;;;;;;;;;;5018568;28;20307;-73
2020/12/23 03:55:57;;;;;;;0.00;0.00;;;;;;;;;;5000229;28;20265;-73
2020/12/23 03:58:22;;;;;;;0.10;0.10;;;;;;;;;;5034123;28;20753;-73
2020/12/23 04:00:48;;;;;;;0.10;0.10;;;;;;;;;;4984256;28;20032;-74
2020/12/23 04:03:13;;;;;;;0.10;0.10;;;;;;;;;;5023761;28;20272;-75
2020/12/23 04:05:39;;;;;;;0.10;0.10;;;;;;;;;;5045160;28;20092;-74
2020/12/23 04:08:04;;;;;;;0.10;0.10;;;;;;;;;;5025808;28;20678;-75
2020/12/23 04:10:30;;;;;;;0.00;0.00;;;;;;;;;;4995447;28;20046;-76
2020/12/23 04:12:55;;;;;;;0.10;0.10;;;;;;;;;;5010645;28;20053;-75
2020/12/23 04:15:20;;;;;;;0.10;0.10;;;;;;;;;;4984692;28;20033;-73
2020/12/23 04:17:45;;;;;;;0.10;0.10;;;;;;;;;;5003775;28;20485;-73
2020/12/23 04:20:11;;;;;;;0.10;0.10;;;;;;;;;;5020542;28;20261;-73
2020/12/23 04:22:36;;;;;;;0.00;0.00;;;;;;;;;;4998413;28;20022;-73
2020/12/23 04:25:03;;;;;;;0.00;0.00;;;;;;;;;;4998904;28;21002;-73
2020/12/23 04:27:28;;;;;;;0.00;0.00;;;;;;;;;;4999021;28;20033;-73
2020/12/23 04:29:54;;;;;;;0.10;0.10;;;;;;;;;;4991239;28;20394;-73
2020/12/23 04:32:19;;;;;;;0.08;0.08;;;;;;;;;;5018282;28;20142;-73
2020/12/23 04:34:44;;;;;;;0.00;0.00;;;;;;;;;;4999558;28;20041;-73
2020/12/23 04:37:10;;;;;;;0.10;0.10;;;;;;;;;;4998713;28;20273;-74
2020/12/23 04:39:35;;;;;;;0.00;0.00;;;;;;;;;;4990824;28;20021;-73
2020/12/23 04:42:01;;;;;;;0.10;0.10;;;;;;;;;;5015590;28;20068;-73
2020/12/23 04:44:27;;;;;;;0.10;0.10;;;;;;;;;;5027971;28;20673;-73
2020/12/23 04:46:52;;;;;;;0.00;0.00;;;;;;;;;;4984694;28;20032;-74
2020/12/23 04:49:20;;;;;;;0.10;0.10;;;;;;;;;;4987458;28;20021;-74
2020/12/23 04:51:46;;;;;;;0.00;0.00;;;;;;;;;;4982691;28;20038;-74
2020/12/23 04:54:11;;;;;;;0.10;0.10;;;;;;;;;;5003048;28;20048;-73
2020/12/23 04:56:36;;;;;;;0.10;0.10;;;;;;;;;;5020040;28;20248;-73
2020/12/23 04:59:02;;;;;;;0.00;0.00;;;;;;;;;;5015012;28;20042;-74
2020/12/23 05:01:28;;;;;;;0.10;0.10;;;;;;;;;;4980314;28;20030;-73
2020/12/23 05:03:54;;;;;;;0.10;0.10;;;;;;;;;;5002284;28;20371;-73
2020/12/23 05:06:19;;;;;;;0.10;0.10;;;;;;;;;;5033331;28;20440;-73
2020/12/23 05:08:45;;;;;;;0.10;0.10;;;;;;;;;;5023187;28;20048;-73
2020/12/23 05:11:10;;;;;;;0.10;0.10;;;;;;;;;;5057370;28;20034;-73
2020/12/23 05:13:36;;;;;;;0.00;0.00;;;;;;;;;;5037690;28;20049;-73
2020/12/23 05:16:03;;;;;;;0.00;0.00;;;;;;;;;;5037052;28;20037;-73
2020/12/23 05:18:30;;;;;;;0.10;0.10;;;;;;;;;;5029356;28;20068;-73
2020/12/23 05:20:55;;;;;;;0.10;0.10;;;;;;;;;;5047764;28;20029;-73
2020/12/23 05:23:20;;;;;;;0.10;0.10;;;;;;;;;;5016809;28;20022;-73
2020/12/23 05:25:45;;;;;;;0.00;0.00;;;;;;;;;;5033396;28;20406;-73
2020/12/23 05:28:11;;;;;;;0.00;0.00;;;;;;;;;;5048022;28;20307;-73
2020/12/23 05:30:36;;;;;;;0.00;0.00;;;;;;;;;;5054966;28;20033;-73
2020/12/23 05:33:01;;;;;;;0.10;0.10;;;;;;;;;;5033601;28;20470;-73
2020/12/23 05:35:27;;;;;;;0.00;0.00;;;;;;;;;;5033001;28;20331;-73
2020/12/23 05:37:52;;;;;;;0.00;0.00;;;;;;;;;;5035980;28;20979;-73
2020/12/23 05:40:17;;;;;;;0.00;0.00;;;;;;;;;;5052844;28;20021;-73
2020/12/23 05:42:42;;;;;;;0.03;0.03;;;;;;;;;;5033191;28;20268;-73
2020/12/23 05:45:08;;;;;;;0.10;0.10;;;;;;;;;;5034333;28;20614;-73
2020/12/23 05:47:33;;;;;;;0.10;0.10;;;;;;;;;;5020744;28;20037;-73
2020/12/23 05:49:59;;;;;;;0.00;0.00;;;;;;;;;;5049757;28;20034;-73
2020/12/23 05:52:24;;;;;;;0.10;0.10;;;;;;;;;;5052983;28;20492;-73
2020/12/23 05:54:53;;;;;;;0.00;0.00;;;;;;;;;;5052540;28;20633;-73
2020/12/23 05:57:19;;;;;;;0.10;0.10;;;;;;;;;;5056756;28;20275;-73
2020/12/23 05:59:44;;;;;;;0.00;0.00;;;;;;;;;;5073471;28;20103;-73
2020/12/23 06:02:11;;;;;;;0.10;0.10;;;;;;;;;;5056982;28;20416;-73
2020/12/23 06:04:41;;;;;;;0.10;0.10;;;;;;;;;;5071854;28;20051;-74
2020/12/23 06:07:06;;;;;;;0.00;0.00;;;;;;;;;;5074287;28;20036;-73
2020/12/23 06:09:36;;;;;;;0.10;0.10;;;;;;;;;;5061279;28;20034;-73
2020/12/23 06:12:06;;;;;;;0.20;0.20;;;;;;;;;;5017287;28;20033;-73
2020/12/23 06:14:31;;;;;;;0.10;0.10;;;;;;;;;;5036860;28;20040;-74
2020/12/23 06:16:59;;;;;;;0.10;0.10;;;;;;;;;;5053120;28;20033;-74
2020/12/23 06:19:37;;;;;;;0.00;0.00;;;;;;;;;;5050271;28;20673;-73
2020/12/23 06:22:03;;;;;;;0.10;0.10;;;;;;;;;;5027444;28;20021;-74
2020/12/23 06:24:28;;;;;;;0.10;0.10;;;;;;;;;;5052150;28;20032;-74
2020/12/23 06:26:57;;;;;;;0.08;0.08;;;;;;;;;;5054979;28;20035;-73
2020/12/23 06:29:24;;;;;;;0.08;0.08;;;;;;;;;;5053105;28;20386;-74
2020/12/23 06:31:49;;;;;;;0.10;0.10;;;;;;;;;;5052592;28;20116;-73
2020/12/23 06:34:15;;;;;;;0.10;0.10;;;;;;;;;;5052950;28;20114;-73
2020/12/23 06:36:41;;;;;;;0.00;0.00;;;;;;;;;;5032702;28;20026;-74
2020/12/23 06:39:18;;;;;;;0.00;0.00;;;;;;;;;;5032437;28;20037;-74
2020/12/23 06:41:43;;;;;;;0.00;0.00;;;;;;;;;;5032184;28;20493;-73
2020/12/23 06:44:09;;;;;;;0.10;0.10;;;;;;;;;;5031723;28;20041;-73
2020/12/23 06:46:53;;;;;;;0.10;0.10;;;;;;;;;;5045582;28;20021;-73
2020/12/23 06:49:18;;;;;;;0.10;0.10;;;;;;;;;;5040553;28;20037;-73
2020/12/23 06:51:44;;;;;;;0.00;0.00;;;;;;;;;;5031552;28;20056;-73
2020/12/23 06:54:09;;;;;;;0.10;0.10;;;;;;;;;;5045111;28;20087;-75
2020/12/23 06:56:44;;;;;;;0.10;0.10;;;;;;;;;;5052744;28;20029;-74
2020/12/23 06:59:29;;;;;;;0.10;0.10;;;;;;;;;;5045622;28;20432;-75
2020/12/23 07:01:54;;;;;;;0.10;0.10;;;;;;;;;;5050813;28;20023;-75
2020/12/23 07:04:23;;;;;;;0.00;0.00;;;;;;;;;;5033937;28;20085;-75
2020/12/23 07:06:49;;;;;;;0.10;0.10;;;;;;;;;;5049820;28;20291;-75
2020/12/23 07:09:15;;;;;;;0.00;0.00;;;;;;;;;;5053009;28;20051;-75
2020/12/23 07:11:41;;;;;;;0.00;0.00;;;;;;;;;;5077291;28;20263;-75
2020/12/23 07:14:06;;;;;;;0.10;0.10;;;;;;;;;;5038008;28;20029;-75
2020/12/23 07:16:40;;;;;;;0.00;0.00;;;;;;;;;;5032299;28;20629;-75
2020/12/23 07:19:06;;;;;;;0.00;0.00;;;;;;;;;;5042275;28;20033;-75
2020/12/23 07:21:31;;;;;;;0.10;0.10;;;;;;;;;;5033310;28;20041;-75
2020/12/23 07:23:56;;;;;;;0.10;0.10;;;;;;;;;;5041406;28;20263;-75
2020/12/23 07:26:21;;;;;;;0.10;0.10;;;;;;;;;;5020527;28;20311;-75
2020/12/23 07:28:47;;;;;;;0.00;0.00;;;;;;;;;;5049142;28;20037;-75
2020/12/23 07:31:12;;;;;;;0.10;0.10;;;;;;;;;;5045622;28;20333;-76
2020/12/23 07:33:38;;;;;;;0.10;0.10;;;;;;;;;;5042132;28;20620;-75
2020/12/23 07:36:04;;;;;;;0.10;0.10;;;;;;;;;;5044062;28;20729;-74
2020/12/23 07:38:30;;;;;;;0.10;0.10;;;;;;;;;;5044805;28;20114;-75
2020/12/23 07:40:55;;;;;;;0.10;0.10;;;;;;;;;;5047021;28;20025;-74
2020/12/23 07:43:20;;;;;;;0.10;0.10;;;;;;;;;;5024487;28;20034;-74
2020/12/23 07:45:45;;;;;;;0.10;0.10;;;;;;;;;;5025450;28;20342;-72
2020/12/23 07:48:12;;;;;;;0.10;0.10;;;;;;;;;;5047115;28;20072;-72
2020/12/23 07:50:37;;;;;;;0.00;0.00;;;;;;;;;;5050663;28;20029;-73
2020/12/23 07:53:10;;;;;;;0.10;0.10;;;;;;;;;;5041870;28;20087;-73
2020/12/23 07:55:35;;;;;;;0.00;0.00;;;;;;;;;;5043303;28;20270;-73
2020/12/23 07:58:01;;;;;;;0.10;0.10;;;;;;;;;;5024471;28;20033;-73
2020/12/23 08:00:26;;;;;;;0.10;0.10;;;;;;;;;;5043414;28;20037;-73
2020/12/23 08:02:52;;;;;;;0.10;0.10;;;;;;;;;;5018818;28;20033;-73
2020/12/23 08:05:18;;;;;;;0.10;0.10;;;;;;;;;;5047693;28;20284;-73
2020/12/23 08:07:43;;;;;;;0.10;0.10;;;;;;;;;;5000706;28;20033;-72
2020/12/23 08:10:09;;;;;;;0.10;0.10;;;;;;;;;;4992241;28;20269;-73
2020/12/23 08:12:34;;;;;;;0.10;0.10;;;;;;;;;;5001171;28;20021;-73
2020/12/23 08:15:00;;;;;;;0.03;0.03;;;;;;;;;;5001043;28;20459;-73
2020/12/23 08:17:25;;;;;;;0.10;0.10;;;;;;;;;;5029038;28;20034;-73
2020/12/23 08:20:14;;;;;;;0.00;0.00;;;;;;;;;;4986732;28;20022;-73
2020/12/23 08:22:40;;;;;;;0.10;0.10;;;;;;;;;;5019842;28;20053;-73
2020/12/23 08:25:12;;;;;;;0.10;0.10;;;;;;;;;;5017383;28;20029;-73
2020/12/23 08:27:38;;;;;;;0.03;0.03;;;;;;;;;;5000697;28;20032;-73
2020/12/23 08:30:04;;;;;;;0.00;0.00;;;;;;;;;;5035130;28;20037;-73
2020/12/23 08:32:34;;;;;;;0.10;0.10;;;;;;;;;;5017549;28;20041;-73
2020/12/23 08:35:00;;;;;;;0.00;0.00;;;;;;;;;;5001008;28;20389;-72
2020/12/23 08:37:25;;;;;;;0.00;0.00;;;;;;;;;;4999592;28;20037;-73
2020/12/23 08:39:54;;;;;;;0.10;0.10;;;;;;;;;;5014948;28;20029;-72
2020/12/23 08:42:20;;;;;;;0.10;0.10;;;;;;;;;;5017248;28;20533;-73
2020/12/23 08:44:46;;;;;;;0.10;0.10;;;;;;;;;;5017091;28;20034;-72
2020/12/23 08:47:11;;;;;;;0.10;0.10;;;;;;;;;;5000809;28;20363;-73
2020/12/23 08:49:42;;;;;;;0.10;0.10;;;;;;;;;;5009250;28;20108;-73
2020/12/23 08:52:17;;;;;;;0.10;0.10;;;;;;;;;;5016463;28;20013;-73
2020/12/23 08:54:43;;;;;;;0.10;0.10;;;;;;;;;;5008571;28;20364;-72
2020/12/23 08:57:08;;;;;;;0.10;0.10;;;;;;;;;;4995702;28;20088;-72
2020/12/23 08:59:38;;;;;;;0.10;0.10;;;;;;;;;;5007946;28;20044;-72
2020/12/23 09:02:10;;;;;;;0.10;0.10;;;;;;;;;;5016518;28;20033;-73
2020/12/23 09:04:35;;;;;;;0.10;0.10;;;;;;;;;;4988683;28;20538;-73
2020/12/23 09:07:36;;;;;;;0.00;0.00;;;;;;;;;;5027139;28;20121;-74
2020/12/23 09:10:10;;;;;;;0.10;0.10;;;;;;;;;;5036436;28;20041;-74
2020/12/23 09:12:36;;;;;;;0.10;0.10;;;;;;;;;;5023914;28;20032;-73
2020/12/23 09:15:21;;;;;;;0.10;0.10;;;;;;;;;;5045133;28;20473;-74
2020/12/23 09:17:47;;;;;;;0.05;0.05;;;;;;;;;;5052013;28;20076;-74
2020/12/23 09:20:12;;;;;;;0.08;0.08;;;;;;;;;;5043084;28;20061;-74
2020/12/23 09:22:38;;;;;;;0.05;0.05;;;;;;;;;;5047752;28;20021;-75
2020/12/23 09:25:11;;;;;;;0.10;0.10;;;;;;;;;;5037730;28;20413;-74
2020/12/23 09:27:36;;;;;;;0.00;0.00;;;;;;;;;;5038016;28;20033;-76
2020/12/23 09:30:01;;;;;;;0.05;0.05;;;;;;;;;;5047971;28;20084;-76
2020/12/23 09:32:26;;;;;;;0.00;0.00;;;;;;;;;;5048253;28;20036;-74
2020/12/23 09:34:52;;;;;;;0.00;0.00;;;;;;;;;;5042528;28;20025;-75
2020/12/23 09:37:27;;;;;;;0.00;0.00;;;;;;;;;;5037630;28;20266;-74
2020/12/23 09:39:52;;;;;;;0.10;0.10;;;;;;;;;;5045400;28;20701;-74
2020/12/23 09:42:17;;;;;;;0.10;0.10;;;;;;;;;;5040029;28;20033;-73
2020/12/23 09:44:43;;;;;;;0.07;0.07;;;;;;;;;;5045113;28;20041;-74
2020/12/23 09:47:08;;;;;;;0.10;0.10;;;;;;;;;;5033086;28;20334;-74
2020/12/23 09:49:33;;;;;;;0.00;0.00;;;;;;;;;;5042114;28;20271;-74
2020/12/23 09:52:01;;;;;;;0.00;0.00;;;;;;;;;;5052289;28;20335;-74
2020/12/23 09:54:27;;;;;;;0.05;0.05;;;;;;;;;;5036446;28;20774;-74
2020/12/23 09:56:52;;;;;;;0.00;0.00;;;;;;;;;;5035575;28;20044;-74
2020/12/23 09:59:18;;;;;;;0.08;0.08;;;;;;;;;;5035400;28;20288;-74
2020/12/23 10:01:43;;;;;;;0.00;0.00;;;;;;;;;;5052793;28;20037;-74
2020/12/23 10:04:08;;;;;;;0.00;0.00;;;;;;;;;;5050021;28;20022;-74
2020/12/23 10:06:34;;;;;;;0.00;0.00;;;;;;;;;;5029443;28;20045;-73
2020/12/23 10:09:00;;;;;;;0.00;0.00;;;;;;;;;;4990099;28;20108;-73
2020/12/23 10:11:26;;;;;;;0.05;0.05;;;;;;;;;;4994084;28;20426;-74
2020/12/23 10:13:51;;;;;;;0.10;0.10;;;;;;;;;;5015681;28;20042;-74
2020/12/23 10:16:16;;;;;;;0.00;0.00;;;;;;;;;;4995484;28;20273;-74
2020/12/23 10:18:41;;;;;;;0.10;0.10;;;;;;;;;;5010022;28;20787;-74
2020/12/23 10:21:07;;;;;;;0.10;0.10;;;;;;;;;;4998840;28;20029;-74
2020/12/23 10:23:32;;;;;;;0.00;0.00;;;;;;;;;;4998925;28;20268;-74
2020/12/23 10:25:57;;;;;;;0.10;0.10;;;;;;;;;;4998412;28;20252;-72
2020/12/23 10:28:22;;;;;;;0.10;0.10;;;;;;;;;;5005890;28;20285;-74
2020/12/23 10:30:48;;;;;;;0.00;0.00;;;;;;;;;;5004373;28;20269;-73
2020/12/23 10:33:13;;;;;;;0.10;0.10;;;;;;;;;;5021778;28;20029;-73
2020/12/23 10:35:38;;;;;;;0.10;0.10;;;;;;;;;;4997389;28;20088;-73
2020/12/23 10:38:04;;;;;;;0.00;0.00;;;;;;;;;;5008962;28;20083;-73
2020/12/23 10:40:30;;;;;;;0.00;0.00;;;;;;;;;;5031495;28;20394;-74
2020/12/23 10:42:55;;;;;;;0.00;0.00;;;;;;;;;;4990794;28;20034;-73
2020/12/23 10:45:20;;;;;;;0.00;0.00;;;;;;;;;;4998541;28;20779;-74
2020/12/23 10:47:46;;;;;;;0.10;0.10;;;;;;;;;;5003006;28;20033;-74
2020/12/23 10:50:11;;;;;;;0.00;0.00;;;;;;;;;;5007659;28;20033;-74
2020/12/23 10:52:36;;;;;;;0.00;0.00;;;;;;;;;;4998931;28;20030;-75
2020/12/23 10:55:02;;;;;;;0.10;0.10;;;;;;;;;;4979939;28;20100;-75
2020/12/23 10:57:27;;;;;;;0.00;0.00;;;;;;;;;;5004962;28;20279;-75
2020/12/23 10:59:56;;;;;;;0.00;0.00;;;;;;;;;;5015212;28;20270;-75
2020/12/23 11:02:30;;;;;;;0.00;0.00;;;;;;;;;;5015674;28;20489;-74
2020/12/23 11:04:56;;;;;;;0.00;0.00;;;;;;;;;;5033118;28;20038;-75
2020/12/23 11:07:21;;;;;;;0.00;0.00;;;;;;;;;;5034861;28;20045;-75
2020/12/23 11:09:49;;;;;;;0.00;0.00;;;;;;;;;;5015327;28;20122;-75
2020/12/23 11:12:14;;;;;;;0.10;0.10;;;;;;;;;;4995784;28;20152;-74
2020/12/23 11:14:39;;;;;;;0.05;0.05;;;;;;;;;;4995677;28;20120;-73
2020/12/23 11:17:05;;;;;;;0.00;0.00;;;;;;;;;;4996687;28;20030;-73
2020/12/23 11:19:30;;;;;;;0.10;0.10;;;;;;;;;;5015223;28;20033;-73
2020/12/23 11:21:55;;;;;;;0.00;0.00;;;;;;;;;;5014889;28;20025;-74
2020/12/23 11:24:20;;;;;;;0.10;0.10;;;;;;;;;;5015521;28;20105;-74
2020/12/23 11:26:46;;;;;;;0.00;0.00;;;;;;;;;;5032779;28;20053;-74
2020/12/23 11:29:11;;;;;;;0.00;0.00;;;;;;;;;;5015434;28;20083;-73
2020/12/23 11:31:36;;;;;;;0.00;0.00;;;;;;;;;;4996598;28;20087;-74
2020/12/23 11:34:01;;;;;;;0.08;0.08;;;;;;;;;;4995968;28;20265;-74
2020/12/23 11:36:27;;;;;;;0.10;0.10;;;;;;;;;;5013543;28;20033;-75
2020/12/23 11:38:52;;;;;;;0.03;0.03;;;;;;;;;;5013499;28;20368;-74
2020/12/23 11:41:17;;;;;;;0.00;0.00;;;;;;;;;;5013930;28;20033;-75
2020/12/23 11:43:43;;;;;;;0.00;0.00;;;;;;;;;;5015728;28;20322;-76
2020/12/23 11:46:09;;;;;;;0.10;0.10;;;;;;;;;;5001391;28;20261;-74
2020/12/23 11:48:34;;;;;;;0.00;0.00;;;;;;;;;;4988419;28;20275;-75
2020/12/23 11:50:59;;;;;;;0.10;0.10;;;;;;;;;;5013396;28;20053;-75
2020/12/23 11:53:25;;;;;;;0.00;0.00;;;;;;;;;;4999158;28;20036;-75
2020/12/23 11:55:50;;;;;;;0.00;0.00;;;;;;;;;;5015210;28;20602;-74
2020/12/23 11:58:18;;;;;;;0.00;0.00;;;;;;;;;;5015879;28;20076;-74
2020/12/23 12:00:44;;;;;;;0.10;0.10;;;;;;;;;;5015745;28;20390;-75
2020/12/23 12:03:09;;;;;;;0.00;0.00;;;;;;;;;;5032789;28;20259;-74
2020/12/23 12:05:34;;;;;;;0.00;0.00;;;;;;;;;;4998627;28;20117;-74
2020/12/23 12:08:03;;;;;;;0.10;0.10;;;;;;;;;;4998144;28;20033;-74
2020/12/23 12:10:28;;;;;;;0.00;0.00;;;;;;;;;;4999012;28;20280;-74
2020/12/23 12:12:53;;;;;;;0.00;0.00;;;;;;;;;;5018409;28;20029;-75
2020/12/23 12:15:18;;;;;;;0.00;0.00;;;;;;;;;;5036327;28;20264;-74
2020/12/23 12:17:43;;;;;;;0.00;0.00;;;;;;;;;;5017265;28;20419;-74
2020/12/23 12:20:09;;;;;;;0.10;0.10;;;;;;;;;;5001501;28;20325;-74
2020/12/23 12:22:34;;;;;;;0.00;0.00;;;;;;;;;;5018059;28;20609;-74
2020/12/23 12:24:59;;;;;;;0.00;0.00;;;;;;;;;;5018378;28;20478;-74
2020/12/23 12:27:25;;;;;;;0.00;0.00;;;;;;;;;;5001987;28;20745;-75
2020/12/23 12:29:50;;;;;;;0.00;0.00;;;;;;;;;;5035948;28;20264;-75
2020/12/23 12:32:15;;;;;;;0.00;0.00;;;;;;;;;;5018372;28;20044;-75
2020/12/23 12:34:41;;;;;;;0.00;0.00;;;;;;;;;;5019233;28;20022;-74
2020/12/23 12:37:06;;;;;;;0.00;0.00;;;;;;;;;;4999005;28;20797;-75
2020/12/23 12:39:32;;;;;;;0.00;0.00;;;;;;;;;;5013839;28;20025;-75
2020/12/23 12:42:01;;;;;;;0.00;0.00;;;;;;;;;;5001887;28;20264;-75
2020/12/23 12:44:26;;;;;;;0.00;0.00;;;;;;;;;;5003921;28;20490;-75
2020/12/23 12:46:51;;;;;;;0.00;0.00;;;;;;;;;;4998737;28;20029;-75
2020/12/23 12:49:17;;;;;;;0.00;0.00;;;;;;;;;;4993878;28;20065;-74
2020/12/23 12:51:42;;;;;;;0.00;0.00;;;;;;;;;;5007143;28;20068;-77
2020/12/23 12:54:08;;;;;;;0.00;0.00;;;;;;;;;;5018281;28;20382;-74
2020/12/23 12:56:33;;;;;;;0.00;0.00;;;;;;;;;;5017718;28;20034;-74
2020/12/23 12:58:58;;;;;;;0.00;0.00;;;;;;;;;;5001526;28;20025;-75
2020/12/23 13:01:31;;;;;;;0.00;0.00;;;;;;;;;;5001447;28;20276;-75
2020/12/23 13:03:57;;;;;;;0.00;0.00;;;;;;;;;;5021931;28;20097;-74
2020/12/23 13:06:22;;;;;;;0.00;0.00;;;;;;;;;;4993389;28;20442;-75
2020/12/23 13:08:48;;;;;;;0.00;0.00;;;;;;;;;;5033951;28;20278;-74
2020/12/23 13:11:23;;;;;;;0.00;0.00;;;;;;;;;;5034977;28;20025;-74
2020/12/23 13:13:48;;;;;;;0.10;0.10;;;;;;;;;;5024874;28;20037;-74
2020/12/23 13:16:13;;;;;;;0.10;0.10;;;;;;;;;;5033462;28;20817;-73
2020/12/23 13:18:39;;;;;;;0.00;0.00;;;;;;;;;;5026012;28;20061;-74
2020/12/23 13:21:04;;;;;;;0.00;0.00;;;;;;;;;;5033510;28;20104;-74
2020/12/23 13:23:29;;;;;;;0.10;0.10;;;;;;;;;;5033456;28;20033;-73
2020/12/23 13:25:54;;;;;;;0.00;0.00;;;;;;;;;;5036690;28;20354;-73
2020/12/23 13:28:22;;;;;;;0.00;0.00;;;;;;;;;;5053008;28;20756;-73
2020/12/23 13:30:47;;;;;;;0.10;0.10;;;;;;;;;;5054468;28;20282;-72
2020/12/23 13:33:13;;;;;;;0.00;0.00;;;;;;;;;;5039957;28;20038;-72
2020/12/23 13:35:38;;;;;;;0.00;0.00;;;;;;;;;;5047433;28;20037;-73
2020/12/23 13:38:03;;;;;;;0.10;0.10;;;;;;;;;;5036613;28;20104;-74
2020/12/23 13:40:28;;;;;;;0.00;0.00;;;;;;;;;;5050939;28;20282;-73
2020/12/23 13:42:53;;;;;;;0.10;0.10;;;;;;;;;;5024787;28;21872;-72
2020/12/23 13:45:19;;;;;;;0.00;0.00;;;;;;;;;;5035988;28;20267;-72
2020/12/23 13:47:44;;;;;;;0.00;0.00;;;;;;;;;;5043811;28;20394;-73
2020/12/23 13:50:09;;;;;;;0.00;0.00;;;;;;;;;;5024331;28;20091;-73
2020/12/23 13:52:35;;;;;;;0.10;0.10;;;;;;;;;;5027216;28;20283;-72
2020/12/23 13:55:00;;;;;;;0.00;0.00;;;;;;;;;;5045919;28;20032;-73
2020/12/23 13:57:25;;;;;;;0.03;0.03;;;;;;;;;;5050598;28;20119;-73
2020/12/23 13:59:50;;;;;;;0.10;0.10;;;;;;;;;;5016105;28;20505;-72
2020/12/23 14:02:15;;;;;;;0.10;0.10;;;;;;;;;;5035151;28;20034;-72
2020/12/23 14:04:41;;;;;;;0.00;0.00;;;;;;;;;;5035497;28;20030;-73
2020/12/23 14:07:06;;;;;;;0.10;0.10;;;;;;;;;;5026100;28;20284;-72
2020/12/23 14:09:31;;;;;;;0.00;0.00;;;;;;;;;;4996511;28;20037;-73
2020/12/23 14:11:57;;;;;;;0.00;0.00;;;;;;;;;;5010980;28;20030;-73
2020/12/23 14:14:22;;;;;;;0.00;0.00;;;;;;;;;;5030922;28;20037;-73
2020/12/23 14:16:47;;;;;;;0.00;0.00;;;;;;;;;;5027450;28;20030;-74
2020/12/23 14:19:12;;;;;;;0.00;0.00;;;;;;;;;;5013730;28;20706;-73
2020/12/23 14:21:38;;;;;;;0.00;0.00;;;;;;;;;;4982470;28;20489;-72
2020/12/23 14:24:03;;;;;;;0.00;0.00;;;;;;;;;;4996591;28;20109;-73
2020/12/23 14:26:28;;;;;;;0.00;0.00;;;;;;;;;;4996150;28;20257;-74
2020/12/23 14:28:54;;;;;;;0.05;0.05;;;;;;;;;;4996028;28;20030;-73
2020/12/23 14:31:19;;;;;;;0.10;0.10;;;;;;;;;;4989966;28;20037;-73
2020/12/23 14:33:44;;;;;;;0.10;0.10;;;;;;;;;;5013234;28;20104;-72
2020/12/23 14:36:10;;;;;;;0.10;0.10;;;;;;;;;;5016568;28;20080;-72